sensor_id;sensor_type;location;lat;lon;timestamp;pressure;altitude;pressure_sealevel;temperature;humidity
58686;BME280;44465;53.206;-6.106;2023-07-02T00:01:31;101051.53;;;24.34;45.87
58686;BME280;44465;53.206;-6.106;2023-07-02T00:03:56;101054.03;;;24.37;46.05
58686;BME280;44465;53.206;-6.106;2023-07-02T00:06:22;101039.78;;;24.35;45.94
58686;BME280;44465;53.206;-6.106;2023-07-02T00:08:47;101047.97;;;24.34;45.93
58686;BME280;44465;53.206;-6.106;2023-07-02T00:11:15;101034.81;;;24.29;45.93
58686;BME280;44465;53.206;-6.106;2023-07-02T00:13:40;101030.22;;;24.31;45.67
58686;BME280;44465;53.206;-6.106;2023-07-02T00:16:06;101026.75;;;24.29;45.77
58686;BME280;44465;53.206;-6.106;2023-07-02T00:18:31;101032.13;;;24.29;45.87
58686;BME280;44465;53.206;-6.106;2023-07-02T00:21:00;101026.09;;;24.25;45.96
58686;BME280;44465;53.206;-6.106;2023-07-02T00:23:28;101036.63;;;24.28;45.96
58686;BME280;44465;53.206;-6.106;2023-07-02T00:25:54;101038.47;;;24.28;46.11
58686;BME280;44465;53.206;-6.106;2023-07-02T00:28:20;101030.41;;;24.28;46.16
58686;BME280;44465;53.206;-6.106;2023-07-02T00:30:45;101028.00;;;24.23;46.01
58686;BME280;44465;53.206;-6.106;2023-07-02T00:33:11;101035.97;;;24.25;46.28
58686;BME280;44465;53.206;-6.106;2023-07-02T00:35:36;101035.78;;;24.28;46.02
58686;BME280;44465;53.206;-6.106;2023-07-02T00:38:02;101048.47;;;24.26;46.02
58686;BME280;44465;53.206;-6.106;2023-07-02T00:40:28;101049.25;;;24.28;46.08
58686;BME280;44465;53.206;-6.106;2023-07-02T00:42:54;101037.91;;;24.23;46.07
58686;BME280;44465;53.206;-6.106;2023-07-02T00:45:19;101045.91;;;24.24;46.36
58686;BME280;44465;53.206;-6.106;2023-07-02T00:47:45;101042.31;;;24.24;45.78
58686;BME280;44465;53.206;-6.106;2023-07-02T00:50:11;101040.59;;;24.23;45.77
58686;BME280;44465;53.206;-6.106;2023-07-02T00:52:37;101048.66;;;24.23;45.88
58686;BME280;44465;53.206;-6.106;2023-07-02T00:55:03;101039.63;;;24.24;45.72
58686;BME280;44465;53.206;-6.106;2023-07-02T00:57:29;101043.28;;;24.23;45.77
58686;BME280;44465;53.206;-6.106;2023-07-02T00:59:57;101028.22;;;24.20;45.69
58686;BME280;44465;53.206;-6.106;2023-07-02T01:02:23;101029.09;;;24.21;45.98
58686;BME280;44465;53.206;-6.106;2023-07-02T01:04:51;101029.09;;;24.21;46.00
58686;BME280;44465;53.206;-6.106;2023-07-02T01:07:23;101031.78;;;24.21;46.07
58686;BME280;44465;53.206;-6.106;2023-07-02T01:09:50;101036.41;;;24.19;46.20
58686;BME280;44465;53.206;-6.106;2023-07-02T01:12:17;101031.00;;;24.19;46.09
58686;BME280;44465;53.206;-6.106;2023-07-02T01:14:50;101038.13;;;24.20;46.07
58686;BME280;44465;53.206;-6.106;2023-07-02T01:17:18;101043.50;;;24.20;46.15
58686;BME280;44465;53.206;-6.106;2023-07-02T01:19:55;101034.66;;;24.17;46.06
58686;BME280;44465;53.206;-6.106;2023-07-02T01:22:26;101031.97;;;24.17;46.27
58686;BME280;44465;53.206;-6.106;2023-07-02T01:24:52;101042.84;;;24.16;46.37
58686;BME280;44465;53.206;-6.106;2023-07-02T01:27:19;101042.84;;;24.16;46.30
58686;BME280;44465;53.206;-6.106;2023-07-02T01:29:46;101045.63;;;24.14;46.23
58686;BME280;44465;53.206;-6.106;2023-07-02T01:32:12;101048.31;;;24.14;46.15
58686;BME280;44465;53.206;-6.106;2023-07-02T01:34:39;101056.38;;;24.14;46.04
58686;BME280;44465;53.206;-6.106;2023-07-02T01:37:06;101058.28;;;24.12;45.85
58686;BME280;44465;53.206;-6.106;2023-07-02T01:39:32;101058.28;;;24.12;45.98
58686;BME280;44465;53.206;-6.106;2023-07-02T01:42:14;101049.69;;;24.07;45.97
58686;BME280;44465;53.206;-6.106;2023-07-02T01:44:41;101062.81;;;24.12;46.06
58686;BME280;44465;53.206;-6.106;2023-07-02T01:47:07;101049.69;;;24.07;46.20
58686;BME280;44465;53.206;-6.106;2023-07-02T01:49:33;101049.69;;;24.07;46.09
58686;BME280;44465;53.206;-6.106;2023-07-02T01:51:59;101046.97;;;24.07;46.11
58686;BME280;44465;53.206;-6.106;2023-07-02T01:54:27;101047.75;;;24.09;46.36
58686;BME280;44465;53.206;-6.106;2023-07-02T01:56:53;101043.63;;;24.04;46.21
58686;BME280;44465;53.206;-6.106;2023-07-02T01:59:19;101042.75;;;24.03;46.20
58686;BME280;44465;53.206;-6.106;2023-07-02T02:01:45;101050.34;;;24.11;46.05
58686;BME280;44465;53.206;-6.106;2023-07-02T02:04:11;101047.75;;;24.09;46.07
58686;BME280;44465;53.206;-6.106;2023-07-02T02:06:37;101021.44;;;24.00;46.31
58686;BME280;44465;53.206;-6.106;2023-07-02T02:09:04;101049.69;;;24.07;46.35
58686;BME280;44465;53.206;-6.106;2023-07-02T02:11:31;101043.44;;;24.07;46.44
58686;BME280;44465;53.206;-6.106;2023-07-02T02:13:57;101040.06;;;24.03;46.17
58686;BME280;44465;53.206;-6.106;2023-07-02T02:16:22;101042.75;;;24.03;46.08
58686;BME280;44465;53.206;-6.106;2023-07-02T02:18:48;101046.97;;;24.07;46.11
58686;BME280;44465;53.206;-6.106;2023-07-02T02:21:17;101040.84;;;24.05;46.11
58686;BME280;44465;53.206;-6.106;2023-07-02T02:23:43;101042.56;;;24.06;46.27
58686;BME280;44465;53.206;-6.106;2023-07-02T02:26:09;101036.53;;;24.03;45.95
58686;BME280;44465;53.206;-6.106;2023-07-02T02:28:35;101041.25;;;23.99;46.21
58686;BME280;44465;53.206;-6.106;2023-07-02T02:31:00;101050.81;;;24.03;46.46
58686;BME280;44465;53.206;-6.106;2023-07-02T02:33:26;101049.88;;;24.04;46.22
58686;BME280;44465;53.206;-6.106;2023-07-02T02:35:52;101039.22;;;24.03;46.19
58686;BME280;44465;53.206;-6.106;2023-07-02T02:38:17;101045.56;;;24.01;45.99
58686;BME280;44465;53.206;-6.106;2023-07-02T02:40:43;101033.06;;;24.00;46.14
58686;BME280;44465;53.206;-6.106;2023-07-02T02:43:12;101042.97;;;24.00;46.39
58686;BME280;44465;53.206;-6.106;2023-07-02T02:45:38;101033.94;;;24.01;46.22
58686;BME280;44465;53.206;-6.106;2023-07-02T02:48:04;101039.50;;;23.98;46.13
58686;BME280;44465;53.206;-6.106;2023-07-02T02:50:29;101036.72;;;23.99;46.19
58686;BME280;44465;53.206;-6.106;2023-07-02T02:52:55;101038.63;;;23.97;46.06
58686;BME280;44465;53.206;-6.106;2023-07-02T02:55:20;101043.94;;;23.99;45.94
58686;BME280;44465;53.206;-6.106;2023-07-02T02:57:46;101040.47;;;23.97;45.94
58686;BME280;44465;53.206;-6.106;2023-07-02T03:00:12;101024.72;;;23.91;46.05
58686;BME280;44465;53.206;-6.106;2023-07-02T03:02:38;101038.81;;;23.94;45.96
58686;BME280;44465;53.206;-6.106;2023-07-02T03:05:05;101034.31;;;23.95;46.31
58686;BME280;44465;53.206;-6.106;2023-07-02T03:07:32;101032.66;;;23.92;45.82
58686;BME280;44465;53.206;-6.106;2023-07-02T03:09:57;101033.44;;;23.94;46.13
58686;BME280;44465;53.206;-6.106;2023-07-02T03:12:25;101038.91;;;23.93;46.20
58686;BME280;44465;53.206;-6.106;2023-07-02T03:14:51;101052.25;;;23.94;46.32
58686;BME280;44465;53.206;-6.106;2023-07-02T03:17:20;101048.69;;;23.94;46.14
58686;BME280;44465;53.206;-6.106;2023-07-02T03:19:45;101042.53;;;23.92;46.04
58686;BME280;44465;53.206;-6.106;2023-07-02T03:22:12;101041.59;;;23.93;46.26
58686;BME280;44465;53.206;-6.106;2023-07-02T03:24:37;101039.13;;;23.90;46.42
58686;BME280;44465;53.206;-6.106;2023-07-02T03:27:03;101034.47;;;23.92;46.29
58686;BME280;44465;53.206;-6.106;2023-07-02T03:29:29;101025.66;;;23.90;46.30
58686;BME280;44465;53.206;-6.106;2023-07-02T03:31:54;101031.88;;;23.90;46.29
58686;BME280;44465;53.206;-6.106;2023-07-02T03:34:20;101029.50;;;23.85;45.93
58686;BME280;44465;53.206;-6.106;2023-07-02T03:36:47;101039.00;;;23.91;46.34
58686;BME280;44465;53.206;-6.106;2023-07-02T03:39:13;101033.63;;;23.91;46.11
58686;BME280;44465;53.206;-6.106;2023-07-02T03:41:38;101023.81;;;23.90;46.38
58686;BME280;44465;53.206;-6.106;2023-07-02T03:44:04;101018.56;;;23.89;46.09
58686;BME280;44465;53.206;-6.106;2023-07-02T03:46:29;101015.75;;;23.90;46.22
58686;BME280;44465;53.206;-6.106;2023-07-02T03:48:56;101016.81;;;23.88;46.12
58686;BME280;44465;53.206;-6.106;2023-07-02T03:51:22;101016.81;;;23.88;46.06
58686;BME280;44465;53.206;-6.106;2023-07-02T03:53:47;101023.72;;;23.92;46.27
58686;BME280;44465;53.206;-6.106;2023-07-02T03:56:13;101014.03;;;23.89;46.25
58686;BME280;44465;53.206;-6.106;2023-07-02T03:58:40;101011.63;;;23.84;46.42
58686;BME280;44465;53.206;-6.106;2023-07-02T04:01:05;101022.38;;;23.84;46.27
58686;BME280;44465;53.206;-6.106;2023-07-02T04:03:31;101020.66;;;23.83;46.08
58686;BME280;44465;53.206;-6.106;2023-07-02T04:05:56;101009.25;;;23.80;46.60
58686;BME280;44465;53.206;-6.106;2023-07-02T04:08:22;101006.66;;;23.78;46.33
58686;BME280;44465;53.206;-6.106;2023-07-02T04:10:49;101024.13;;;23.85;46.19
58686;BME280;44465;53.206;-6.106;2023-07-02T04:13:15;101007.31;;;23.82;46.48
58686;BME280;44465;53.206;-6.106;2023-07-02T04:15:40;101017.00;;;23.84;46.27
58686;BME280;44465;53.206;-6.106;2023-07-02T04:18:06;101013.53;;;23.82;46.25
58686;BME280;44465;53.206;-6.106;2023-07-02T04:20:31;101012.41;;;23.86;46.28
58686;BME280;44465;53.206;-6.106;2023-07-02T04:22:57;101011.63;;;23.84;46.19
58686;BME280;44465;53.206;-6.106;2023-07-02T04:25:23;101006.25;;;23.84;46.15
58686;BME280;44465;53.206;-6.106;2023-07-02T04:27:48;101002.78;;;23.82;46.15
58686;BME280;44465;53.206;-6.106;2023-07-02T04:30:14;101008.16;;;23.82;46.00
58686;BME280;44465;53.206;-6.106;2023-07-02T04:32:40;101010.78;;;23.84;46.07
58686;BME280;44465;53.206;-6.106;2023-07-02T04:35:06;101012.59;;;23.83;46.19
58686;BME280;44465;53.206;-6.106;2023-07-02T04:37:32;101011.81;;;23.81;46.10
58686;BME280;44465;53.206;-6.106;2023-07-02T04:39:57;101009.06;;;23.83;46.21
58686;BME280;44465;53.206;-6.106;2023-07-02T04:42:23;101005.69;;;23.79;46.09
58686;BME280;44465;53.206;-6.106;2023-07-02T04:44:55;101009.34;;;23.78;46.49
58686;BME280;44465;53.206;-6.106;2023-07-02T04:47:21;101000.50;;;23.76;46.31
58686;BME280;44465;53.206;-6.106;2023-07-02T04:49:46;101015.50;;;23.80;46.30
58686;BME280;44465;53.206;-6.106;2023-07-02T04:52:12;101013.78;;;23.79;46.18
58686;BME280;44465;53.206;-6.106;2023-07-02T04:54:37;101015.50;;;23.80;46.10
58686;BME280;44465;53.206;-6.106;2023-07-02T04:57:03;101006.56;;;23.80;46.20
58686;BME280;44465;53.206;-6.106;2023-07-02T04:59:29;101015.50;;;23.80;46.27
58686;BME280;44465;53.206;-6.106;2023-07-02T05:01:54;101001.47;;;23.75;46.21
58686;BME280;44465;53.206;-6.106;2023-07-02T05:04:20;101016.34;;;23.81;46.17
58686;BME280;44465;53.206;-6.106;2023-07-02T05:06:45;101020.88;;;23.80;46.10
58686;BME280;44465;53.206;-6.106;2023-07-02T05:09:11;101014.13;;;23.73;46.14
58686;BME280;44465;53.206;-6.106;2023-07-02T05:11:36;101025.38;;;23.80;46.40
58686;BME280;44465;53.206;-6.106;2023-07-02T05:14:01;101031.81;;;23.77;46.28
58686;BME280;44465;53.206;-6.106;2023-07-02T05:16:28;101025.66;;;23.75;46.12
58686;BME280;44465;53.206;-6.106;2023-07-02T05:18:53;101018.66;;;23.73;46.00
58686;BME280;44465;53.206;-6.106;2023-07-02T05:21:19;101030.84;;;23.78;46.05
58686;BME280;44465;53.206;-6.106;2023-07-02T05:23:45;101030.09;;;23.76;45.93
58686;BME280;44465;53.206;-6.106;2023-07-02T05:26:10;101025.97;;;23.70;46.41
58686;BME280;44465;53.206;-6.106;2023-07-02T05:28:36;101032.00;;;23.74;46.27
58686;BME280;44465;53.206;-6.106;2023-07-02T05:31:01;101021.44;;;23.71;46.15
58686;BME280;44465;53.206;-6.106;2023-07-02T05:33:27;101024.91;;;23.73;46.27
58686;BME280;44465;53.206;-6.106;2023-07-02T05:35:52;101026.72;;;23.73;46.38
58686;BME280;44465;53.206;-6.106;2023-07-02T05:38:18;101028.53;;;23.72;46.09
58686;BME280;44465;53.206;-6.106;2023-07-02T05:40:45;101028.34;;;23.75;46.14
58686;BME280;44465;53.206;-6.106;2023-07-02T05:43:11;101030.09;;;23.76;46.12
58686;BME280;44465;53.206;-6.106;2023-07-02T05:45:37;101037.38;;;23.74;46.07
58686;BME280;44465;53.206;-6.106;2023-07-02T05:48:02;101032.19;;;23.71;46.04
58686;BME280;44465;53.206;-6.106;2023-07-02T05:50:28;101039.97;;;23.76;46.13
58686;BME280;44465;53.206;-6.106;2023-07-02T05:52:53;101040.84;;;23.76;46.31
58686;BME280;44465;53.206;-6.106;2023-07-02T05:55:19;101035.34;;;23.78;46.18
58686;BME280;44465;53.206;-6.106;2023-07-02T05:57:45;101030.09;;;23.76;46.11
58686;BME280;44465;53.206;-6.106;2023-07-02T06:00:11;101036.31;;;23.77;46.20
58686;BME280;44465;53.206;-6.106;2023-07-02T06:02:39;101020.41;;;23.74;46.08
58686;BME280;44465;53.206;-6.106;2023-07-02T06:05:05;101015.09;;;23.72;46.28
58686;BME280;44465;53.206;-6.106;2023-07-02T06:07:30;101008.97;;;23.70;46.07
58686;BME280;44465;53.206;-6.106;2023-07-02T06:09:56;101030.28;;;23.73;46.12
58686;BME280;44465;53.206;-6.106;2023-07-02T06:12:22;101028.53;;;23.72;46.26
58686;BME280;44465;53.206;-6.106;2023-07-02T06:14:47;101023.16;;;23.72;46.22
58686;BME280;44465;53.206;-6.106;2023-07-02T06:17:13;101026.72;;;23.73;46.09
58686;BME280;44465;53.206;-6.106;2023-07-02T06:19:39;101028.34;;;23.75;46.13
58686;BME280;44465;53.206;-6.106;2023-07-02T06:22:04;101026.63;;;23.74;46.17
58686;BME280;44465;53.206;-6.106;2023-07-02T06:24:30;101022.22;;;23.73;46.29
58686;BME280;44465;53.206;-6.106;2023-07-02T06:26:56;101023.94;;;23.74;46.26
58686;BME280;44465;53.206;-6.106;2023-07-02T06:29:22;101028.34;;;23.75;46.19
58686;BME280;44465;53.206;-6.106;2023-07-02T06:31:48;101031.03;;;23.75;46.39
58686;BME280;44465;53.206;-6.106;2023-07-02T06:34:14;101027.69;;;23.72;46.15
58686;BME280;44465;53.206;-6.106;2023-07-02T06:36:40;101031.91;;;23.76;46.20
58686;BME280;44465;53.206;-6.106;2023-07-02T06:39:06;101028.25;;;23.77;46.23
58686;BME280;44465;53.206;-6.106;2023-07-02T06:41:31;101032.00;;;23.74;46.06
58686;BME280;44465;53.206;-6.106;2023-07-02T06:43:57;101032.19;;;23.71;45.87
58686;BME280;44465;53.206;-6.106;2023-07-02T06:46:22;101032.88;;;23.75;46.07
58686;BME280;44465;53.206;-6.106;2023-07-02T06:48:48;101021.44;;;23.71;46.13
58686;BME280;44465;53.206;-6.106;2023-07-02T06:51:13;101035.88;;;23.70;46.16
58686;BME280;44465;53.206;-6.106;2023-07-02T06:53:43;101029.44;;;23.73;45.99
58686;BME280;44465;53.206;-6.106;2023-07-02T06:56:09;101035.47;;;23.76;46.05
58686;BME280;44465;53.206;-6.106;2023-07-02T06:58:35;101033.53;;;23.78;45.90
58686;BME280;44465;53.206;-6.106;2023-07-02T07:01:00;101040.66;;;23.79;45.90
58686;BME280;44465;53.206;-6.106;2023-07-02T07:03:26;101041.63;;;23.78;46.08
58686;BME280;44465;53.206;-6.106;2023-07-02T07:05:53;101049.47;;;23.81;46.10
58686;BME280;44465;53.206;-6.106;2023-07-02T07:08:18;101042.56;;;23.77;46.01
58686;BME280;44465;53.206;-6.106;2023-07-02T07:10:43;101036.31;;;23.77;46.04
58686;BME280;44465;53.206;-6.106;2023-07-02T07:13:13;101037.38;;;23.74;46.19
58686;BME280;44465;53.206;-6.106;2023-07-02T07:15:38;101038.34;;;23.73;46.10
58686;BME280;44465;53.206;-6.106;2023-07-02T07:18:04;101035.66;;;23.73;46.21
58686;BME280;44465;53.206;-6.106;2023-07-02T07:20:30;101038.44;;;23.72;46.22
58686;BME280;44465;53.206;-6.106;2023-07-02T07:22:56;101040.25;;;23.71;46.26
58686;BME280;44465;53.206;-6.106;2023-07-02T07:25:22;101038.56;;;23.70;46.55
58686;BME280;44465;53.206;-6.106;2023-07-02T07:27:48;101032.59;;;23.65;46.12
58686;BME280;44465;53.206;-6.106;2023-07-02T07:30:14;101034.31;;;23.66;46.00
58686;BME280;44465;53.206;-6.106;2023-07-02T07:32:40;101036.91;;;23.67;46.19
58686;BME280;44465;53.206;-6.106;2023-07-02T07:35:07;101022.97;;;23.61;46.12
58686;BME280;44465;53.206;-6.106;2023-07-02T07:37:32;101041.25;;;23.70;45.94
58686;BME280;44465;53.206;-6.106;2023-07-02T07:39:58;101035.94;;;23.68;46.20
58686;BME280;44465;53.206;-6.106;2023-07-02T07:42:24;101029.59;;;23.69;46.00
58686;BME280;44465;53.206;-6.106;2023-07-02T07:44:49;101016.84;;;23.59;46.17
58686;BME280;44465;53.206;-6.106;2023-07-02T07:47:15;101034.03;;;23.70;45.77
58686;BME280;44465;53.206;-6.106;2023-07-02T07:49:41;101026.91;;;23.69;45.97
58686;BME280;44465;53.206;-6.106;2023-07-02T07:52:07;101035.88;;;23.70;46.15
58686;BME280;44465;53.206;-6.106;2023-07-02T07:54:33;101033.06;;;23.72;45.99
58686;BME280;44465;53.206;-6.106;2023-07-02T07:57:01;101033.19;;;23.70;46.40
58686;BME280;44465;53.206;-6.106;2023-07-02T07:59:26;101037.56;;;23.71;46.01
58686;BME280;44465;53.206;-6.106;2023-07-02T08:01:52;101021.72;;;23.66;45.99
58686;BME280;44465;53.206;-6.106;2023-07-02T08:04:17;101015.78;;;23.61;46.12
58686;BME280;44465;53.206;-6.106;2023-07-02T08:06:43;101020.09;;;23.64;46.36
58686;BME280;44465;53.206;-6.106;2023-07-02T08:09:08;101027.03;;;23.68;46.37
58686;BME280;44465;53.206;-6.106;2023-07-02T08:11:35;101018.78;;;23.57;46.14
58686;BME280;44465;53.206;-6.106;2023-07-02T08:14:00;101029.91;;;23.65;46.10
58686;BME280;44465;53.206;-6.106;2023-07-02T08:16:26;101031.53;;;23.67;46.06
58686;BME280;44465;53.206;-6.106;2023-07-02T08:18:51;101036.81;;;23.69;46.15
58686;BME280;44465;53.206;-6.106;2023-07-02T08:21:17;101026.81;;;23.71;45.94
58686;BME280;44465;53.206;-6.106;2023-07-02T08:23:42;101020.78;;;23.67;45.88
58686;BME280;44465;53.206;-6.106;2023-07-02T08:26:09;101023.56;;;23.66;46.11
58686;BME280;44465;53.206;-6.106;2023-07-02T08:28:36;101027.81;;;23.70;46.15
58686;BME280;44465;53.206;-6.106;2023-07-02T08:31:04;101032.19;;;23.71;46.14
58686;BME280;44465;53.206;-6.106;2023-07-02T08:33:29;101027.69;;;23.72;46.00
58686;BME280;44465;53.206;-6.106;2023-07-02T08:35:55;101025.97;;;23.70;46.18
58686;BME280;44465;53.206;-6.106;2023-07-02T08:38:21;101025.78;;;23.74;46.07
58686;BME280;44465;53.206;-6.106;2023-07-02T08:40:46;101019.53;;;23.73;46.15
58686;BME280;44465;53.206;-6.106;2023-07-02T08:43:14;101020.28;;;23.75;46.07
58686;BME280;44465;53.206;-6.106;2023-07-02T08:45:40;101010.97;;;23.66;46.05
58686;BME280;44465;53.206;-6.106;2023-07-02T08:48:06;101024.91;;;23.73;46.02
58686;BME280;44465;53.206;-6.106;2023-07-02T08:50:32;101017.31;;;23.65;45.97
58686;BME280;44465;53.206;-6.106;2023-07-02T08:52:57;101022.31;;;23.72;46.01
58686;BME280;44465;53.206;-6.106;2023-07-02T08:55:23;101027.69;;;23.72;45.92
58686;BME280;44465;53.206;-6.106;2023-07-02T08:57:56;101014.34;;;23.70;46.07
58686;BME280;44465;53.206;-6.106;2023-07-02T09:00:28;101012.63;;;23.69;46.08
58686;BME280;44465;53.206;-6.106;2023-07-02T09:02:56;101017.78;;;23.72;46.03
58686;BME280;44465;53.206;-6.106;2023-07-02T09:05:21;101027.28;;;23.78;46.11
58686;BME280;44465;53.206;-6.106;2023-07-02T09:07:48;101020.09;;;23.78;46.05
58686;BME280;44465;53.206;-6.106;2023-07-02T09:10:30;101007.91;;;23.73;46.26
58686;BME280;44465;53.206;-6.106;2023-07-02T09:13:06;101014.63;;;23.80;45.91
58686;BME280;44465;53.206;-6.106;2023-07-02T09:15:39;101009.25;;;23.80;45.82
58686;BME280;44465;53.206;-6.106;2023-07-02T09:18:18;100997.25;;;23.71;45.94
58686;BME280;44465;53.206;-6.106;2023-07-02T09:20:45;101013.53;;;23.82;45.95
58686;BME280;44465;53.206;-6.106;2023-07-02T09:23:11;101016.16;;;23.84;45.97
58686;BME280;44465;53.206;-6.106;2023-07-02T09:25:38;101014.31;;;23.84;45.76
58686;BME280;44465;53.206;-6.106;2023-07-02T09:28:21;101016.25;;;23.82;46.22
58686;BME280;44465;53.206;-6.106;2023-07-02T09:33:16;101017.41;;;23.78;45.80
58686;BME280;44465;53.206;-6.106;2023-07-02T09:35:42;101014.72;;;23.78;46.11
58686;BME280;44465;53.206;-6.106;2023-07-02T09:38:08;101037.97;;;23.79;46.00
58686;BME280;44465;53.206;-6.106;2023-07-02T09:40:33;101033.53;;;23.78;46.04
58686;BME280;44465;53.206;-6.106;2023-07-02T09:43:00;101032.66;;;23.78;46.00
58686;BME280;44465;53.206;-6.106;2023-07-02T09:45:25;101024.72;;;23.76;45.90
58686;BME280;44465;53.206;-6.106;2023-07-02T09:47:52;101026.03;;;23.83;46.08
58686;BME280;44465;53.206;-6.106;2023-07-02T09:50:21;101020.09;;;23.78;46.24
58686;BME280;44465;53.206;-6.106;2023-07-02T09:52:48;101015.50;;;23.80;46.17
58686;BME280;44465;53.206;-6.106;2023-07-02T09:55:14;101010.84;;;23.82;45.93
58686;BME280;44465;53.206;-6.106;2023-07-02T09:57:42;101010.13;;;23.80;46.22
58686;BME280;44465;53.206;-6.106;2023-07-02T10:00:08;101015.28;;;23.83;45.81
58686;BME280;44465;53.206;-6.106;2023-07-02T10:02:36;101006.25;;;23.84;46.00
58686;BME280;44465;53.206;-6.106;2023-07-02T10:05:01;101009.72;;;23.86;46.00
58686;BME280;44465;53.206;-6.106;2023-07-02T10:07:29;101007.03;;;23.86;46.09
58686;BME280;44465;53.206;-6.106;2023-07-02T10:09:55;101004.81;;;23.79;46.17
58686;BME280;44465;53.206;-6.106;2023-07-02T10:12:25;101009.91;;;23.83;46.16
58686;BME280;44465;53.206;-6.106;2023-07-02T10:14:52;101001.84;;;23.83;45.80
58686;BME280;44465;53.206;-6.106;2023-07-02T10:17:29;101005.88;;;23.76;46.08
58686;BME280;44465;53.206;-6.106;2023-07-02T10:19:57;101009.06;;;23.83;46.10
58686;BME280;44465;53.206;-6.106;2023-07-02T10:22:24;100990.72;;;23.75;46.06
58686;BME280;44465;53.206;-6.106;2023-07-02T10:24:58;101010.78;;;23.84;45.92
58686;BME280;44465;53.206;-6.106;2023-07-02T10:30:00;101011.44;;;23.88;45.97
58686;BME280;44465;53.206;-6.106;2023-07-02T10:32:29;101000.69;;;23.88;45.99
58686;BME280;44465;53.206;-6.106;2023-07-02T10:34:55;101015.75;;;23.90;46.10
58686;BME280;44465;53.206;-6.106;2023-07-02T10:37:21;101014.91;;;23.90;45.83
58686;BME280;44465;53.206;-6.106;2023-07-02T10:39:47;101014.03;;;23.89;45.99
58686;BME280;44465;53.206;-6.106;2023-07-02T10:42:12;101022.00;;;23.91;46.08
58686;BME280;44465;53.206;-6.106;2023-07-02T10:44:51;101007.56;;;23.92;45.78
58686;BME280;44465;53.206;-6.106;2023-07-02T10:47:18;101011.03;;;23.94;45.89
58686;BME280;44465;53.206;-6.106;2023-07-02T10:49:44;101008.34;;;23.94;45.85
58686;BME280;44465;53.206;-6.106;2023-07-02T10:52:10;101009.16;;;23.96;45.97
58686;BME280;44465;53.206;-6.106;2023-07-02T10:54:43;101002.94;;;23.95;45.90
58686;BME280;44465;53.206;-6.106;2023-07-02T10:57:10;100994.06;;;23.93;45.89
58686;BME280;44465;53.206;-6.106;2023-07-02T10:59:37;100995.00;;;23.92;46.09
58686;BME280;44465;53.206;-6.106;2023-07-02T11:02:03;100995.13;;;23.91;45.70
58686;BME280;44465;53.206;-6.106;2023-07-02T11:04:30;100973.59;;;23.91;45.95
58686;BME280;44465;53.206;-6.106;2023-07-02T11:06:56;100979.34;;;23.84;46.12
58686;BME280;44465;53.206;-6.106;2023-07-02T11:09:21;100975.53;;;23.89;45.85
58686;BME280;44465;53.206;-6.106;2023-07-02T11:11:55;100975.31;;;23.92;45.77
58686;BME280;44465;53.206;-6.106;2023-07-02T11:16:54;100969.75;;;23.95;45.92
58686;BME280;44465;53.206;-6.106;2023-07-02T11:19:20;100967.06;;;23.95;46.36
58686;BME280;44465;53.206;-6.106;2023-07-02T11:21:53;100955.34;;;23.96;45.87
58686;BME280;44465;53.206;-6.106;2023-07-02T11:24:36;100971.31;;;23.99;45.84
58686;BME280;44465;53.206;-6.106;2023-07-02T11:27:06;100974.00;;;23.99;46.08
58686;BME280;44465;53.206;-6.106;2023-07-02T11:29:33;100954.50;;;23.95;45.81
58686;BME280;44465;53.206;-6.106;2023-07-02T11:32:06;100969.47;;;23.99;45.93
58686;BME280;44465;53.206;-6.106;2023-07-02T11:34:32;100962.28;;;24.00;45.96
58686;BME280;44465;53.206;-6.106;2023-07-02T11:36:57;100956.91;;;24.00;46.26
58686;BME280;44465;53.206;-6.106;2023-07-02T11:39:23;100958.63;;;24.01;45.94
58686;BME280;44465;53.206;-6.106;2023-07-02T11:41:49;100953.44;;;23.98;46.13
58686;BME280;44465;53.206;-6.106;2023-07-02T11:44:16;100950.84;;;23.96;45.91
58686;BME280;44465;53.206;-6.106;2023-07-02T11:46:42;100957.94;;;23.97;45.78
58686;BME280;44465;53.206;-6.106;2023-07-02T11:49:07;100960.53;;;23.99;45.81
58686;BME280;44465;53.206;-6.106;2023-07-02T11:51:35;100958.69;;;23.99;46.00
58686;BME280;44465;53.206;-6.106;2023-07-02T11:54:03;100951.72;;;23.97;45.98
58686;BME280;44465;53.206;-6.106;2023-07-02T11:56:28;100956.66;;;24.03;46.10
58686;BME280;44465;53.206;-6.106;2023-07-02T11:58:54;100956.66;;;24.03;46.07
58686;BME280;44465;53.206;-6.106;2023-07-02T12:01:19;100945.25;;;23.99;46.30
58686;BME280;44465;53.206;-6.106;2023-07-02T12:03:44;100947.63;;;24.04;46.17
58686;BME280;44465;53.206;-6.106;2023-07-02T12:06:10;100960.25;;;24.04;46.08
58686;BME280;44465;53.206;-6.106;2023-07-02T12:08:36;100952.16;;;24.04;46.21
58686;BME280;44465;53.206;-6.106;2023-07-02T12:11:01;100952.25;;;24.02;46.15
58686;BME280;44465;53.206;-6.106;2023-07-02T12:13:27;100962.06;;;24.03;46.04
58686;BME280;44465;53.206;-6.106;2023-07-02T12:15:52;100962.81;;;24.05;46.08
58686;BME280;44465;53.206;-6.106;2023-07-02T12:18:18;100946.13;;;24.00;45.98
58686;BME280;44465;53.206;-6.106;2023-07-02T12:20:43;100950.44;;;24.03;45.83
58686;BME280;44465;53.206;-6.106;2023-07-02T12:23:09;100953.78;;;24.06;46.12
58686;BME280;44465;53.206;-6.106;2023-07-02T12:25:37;100945.06;;;24.03;45.85
58686;BME280;44465;53.206;-6.106;2023-07-02T12:28:03;100927.06;;;24.03;45.97
58686;BME280;44465;53.206;-6.106;2023-07-02T12:30:29;100929.78;;;24.03;45.88
58686;BME280;44465;53.206;-6.106;2023-07-02T12:32:55;100918.16;;;24.03;46.16
58686;BME280;44465;53.206;-6.106;2023-07-02T12:35:20;100900.41;;;24.00;45.58
58686;BME280;44465;53.206;-6.106;2023-07-02T12:37:50;100899.84;;;23.95;45.80
58686;BME280;44465;53.206;-6.106;2023-07-02T12:40:16;100920.53;;;24.07;46.02
58686;BME280;44465;53.206;-6.106;2023-07-02T12:42:43;100919.69;;;24.07;46.09
58686;BME280;44465;53.206;-6.106;2023-07-02T12:45:10;100915.16;;;24.07;46.29